Time;durP1;ratioP1;P1;durP2;ratioP2;P2;SDS_P1;SDS_P2;PMS_P1;PMS_P2;Temp;Humidity;BMP_temperature;BMP_pressure;BME280_temperature;BME280_humidity;BME280_pressure;Samples;Min_cycle;Max_cycle;Signal;HPM_P1;HPM_P2
2023/06/27 00:03:13;;;;;;;0.80;0.80;;;;;;;;;;10295626;28;20271;-71
2023/06/27 00:08:14;;;;;;;1.95;0.80;;;;;;;;;;10295256;28;20608;-73
2023/06/27 00:13:16;;;;;;;5.15;0.80;;;;;;;;;;10300873;28;20222;-71
2023/06/27 00:18:17;;;;;;;0.98;0.70;;;;;;;;;;10287852;28;20231;-74
2023/06/27 00:23:24;;;;;;;1.63;0.93;;;;;;;;;;10293390;28;20212;-73
2023/06/27 00:28:25;;;;;;;0.73;0.73;;;;;;;;;;10302571;28;20218;-72
2023/06/27 00:33:26;;;;;;;0.80;0.80;;;;;;;;;;10297606;28;20220;-71
2023/06/27 00:38:27;;;;;;;0.93;0.90;;;;;;;;;;10301497;28;20209;-74
2023/06/27 00:43:28;;;;;;;2.05;1.17;;;;;;;;;;10300816;28;20598;-74
2023/06/27 00:48:31;;;;;;;2.05;0.80;;;;;;;;;;10295486;28;20853;-72
2023/06/27 00:53:32;;;;;;;2.92;0.85;;;;;;;;;;10279239;28;20227;-72
2023/06/27 00:58:34;;;;;;;0.60;0.60;;;;;;;;;;10292155;28;20209;-73
2023/06/27 01:03:35;;;;;;;0.90;0.90;;;;;;;;;;10283235;28;20224;-72
2023/06/27 01:08:39;;;;;;;2.17;1.00;;;;;;;;;;10293815;28;20225;-74
2023/06/27 01:13:42;;;;;;;3.50;1.00;;;;;;;;;;10297183;28;20221;-74
2023/06/27 01:18:43;;;;;;;1.50;0.60;;;;;;;;;;10293259;28;20225;-73
2023/06/27 01:23:48;;;;;;;0.70;0.70;;;;;;;;;;10295852;28;20259;-75
2023/06/27 01:28:50;;;;;;;3.95;1.15;;;;;;;;;;10294636;28;20236;-73
2023/06/27 01:34:03;;;;;;;1.58;1.15;;;;;;;;;;10294240;28;20213;-73
2023/06/27 01:39:08;;;;;;;2.72;0.90;;;;;;;;;;10294547;28;20267;-73
2023/06/27 01:44:13;;;;;;;2.63;0.73;;;;;;;;;;10296402;28;20312;-73
2023/06/27 01:49:15;;;;;;;1.85;1.02;;;;;;;;;;10302794;28;20311;-71
2023/06/27 01:54:16;;;;;;;0.90;0.90;;;;;;;;;;10314319;28;20734;-74
2023/06/27 01:59:17;;;;;;;2.78;1.10;;;;;;;;;;10301445;28;20225;-74
2023/06/27 02:04:18;;;;;;;4.07;0.98;;;;;;;;;;10302160;28;20220;-75
2023/06/27 02:09:19;;;;;;;2.30;0.80;;;;;;;;;;10293179;28;20224;-76
2023/06/27 02:14:20;;;;;;;1.88;0.80;;;;;;;;;;10289388;28;20768;-72
2023/06/27 02:19:21;;;;;;;3.55;1.23;;;;;;;;;;10292904;28;20213;-74
2023/06/27 02:24:23;;;;;;;3.10;0.80;;;;;;;;;;10297023;28;20212;-73
2023/06/27 02:29:24;;;;;;;2.58;1.10;;;;;;;;;;10281759;28;20222;-72
2023/06/27 02:34:25;;;;;;;4.60;1.15;;;;;;;;;;10298832;28;20208;-74
2023/06/27 02:39:26;;;;;;;1.85;0.70;;;;;;;;;;10277986;28;20275;-73
2023/06/27 02:44:28;;;;;;;2.38;0.85;;;;;;;;;;10287064;28;20221;-74
2023/06/27 02:49:29;;;;;;;2.10;0.95;;;;;;;;;;10301651;28;20217;-75
2023/06/27 02:54:30;;;;;;;7.50;0.70;;;;;;;;;;10282517;28;20220;-73
2023/06/27 02:59:32;;;;;;;0.95;0.80;;;;;;;;;;10299775;28;20695;-72
2023/06/27 03:04:33;;;;;;;1.63;0.80;;;;;;;;;;10288298;28;20738;-74
2023/06/27 03:09:36;;;;;;;1.73;0.88;;;;;;;;;;10293355;28;20233;-72
2023/06/27 03:14:37;;;;;;;2.60;0.80;;;;;;;;;;10298026;28;20902;-72
2023/06/27 03:19:39;;;;;;;1.83;0.73;;;;;;;;;;10307579;28;20224;-72
2023/06/27 03:24:40;;;;;;;4.50;0.80;;;;;;;;;;10296820;28;20280;-73
2023/06/27 03:29:41;;;;;;;5.82;0.90;;;;;;;;;;10280913;28;23333;-74
2023/06/27 03:34:44;;;;;;;4.55;0.80;;;;;;;;;;10285135;28;20774;-75
2023/06/27 03:39:45;;;;;;;1.55;0.80;;;;;;;;;;10299023;28;20340;-76
2023/06/27 03:44:48;;;;;;;2.13;1.10;;;;;;;;;;10287798;28;20310;-75
2023/06/27 03:49:49;;;;;;;5.20;1.10;;;;;;;;;;10307050;28;20217;-73
2023/06/27 03:54:50;;;;;;;2.33;0.73;;;;;;;;;;10297935;28;20225;-74
2023/06/27 03:59:51;;;;;;;6.07;0.80;;;;;;;;;;10300521;28;20271;-76
2023/06/27 04:04:52;;;;;;;4.38;0.65;;;;;;;;;;10297413;28;20243;-72
2023/06/27 04:09:53;;;;;;;2.33;0.95;;;;;;;;;;10297282;28;20254;-72
2023/06/27 04:14:54;;;;;;;3.67;1.05;;;;;;;;;;10297360;28;20212;-71
2023/06/27 04:19:55;;;;;;;2.78;1.13;;;;;;;;;;10296208;28;20202;-73
2023/06/27 04:24:57;;;;;;;4.32;0.90;;;;;;;;;;10285316;28;20213;-73
2023/06/27 04:29:58;;;;;;;1.58;0.80;;;;;;;;;;10302817;28;20217;-72
2023/06/27 04:34:59;;;;;;;2.38;0.70;;;;;;;;;;10282088;28;20213;-75
2023/06/27 04:40:00;;;;;;;6.82;1.17;;;;;;;;;;10275895;28;20687;-72
2023/06/27 04:45:01;;;;;;;7.25;1.05;;;;;;;;;;10277637;28;20205;-73
2023/06/27 04:50:06;;;;;;;6.57;1.33;;;;;;;;;;10262023;28;20217;-72
2023/06/27 04:55:07;;;;;;;1.98;1.05;;;;;;;;;;10292333;28;20232;-74
2023/06/27 05:00:11;;;;;;;4.25;1.00;;;;;;;;;;10260951;28;20190;-72
2023/06/27 05:05:12;;;;;;;3.92;0.88;;;;;;;;;;10293047;28;20281;-72
2023/06/27 05:10:13;;;;;;;4.80;0.98;;;;;;;;;;10289908;28;20751;-72
2023/06/27 05:15:14;;;;;;;2.50;1.08;;;;;;;;;;10287867;28;20216;-72
2023/06/27 05:20:15;;;;;;;1.98;0.85;;;;;;;;;;10263611;28;20722;-72
2023/06/27 05:25:16;;;;;;;3.47;0.80;;;;;;;;;;10285105;28;20205;-75
2023/06/27 05:30:17;;;;;;;0.68;0.68;;;;;;;;;;10270205;28;21642;-75
2023/06/27 05:35:18;;;;;;;1.58;0.98;;;;;;;;;;10285691;28;20311;-73
2023/06/27 05:40:20;;;;;;;3.92;0.70;;;;;;;;;;10278014;28;20177;-72
2023/06/27 05:45:21;;;;;;;5.80;0.88;;;;;;;;;;10290715;28;20205;-74
2023/06/27 05:50:22;;;;;;;1.65;0.65;;;;;;;;;;10300322;28;20280;-72
2023/06/27 05:55:23;;;;;;;0.98;0.50;;;;;;;;;;10305877;28;20231;-72
2023/06/27 06:00:24;;;;;;;3.72;0.70;;;;;;;;;;10289815;28;20239;-74
2023/06/27 06:05:25;;;;;;;2.85;0.60;;;;;;;;;;10287237;28;20315;-74
2023/06/27 06:10:26;;;;;;;3.30;0.63;;;;;;;;;;10297529;28;20283;-73
2023/06/27 06:15:27;;;;;;;1.40;0.55;;;;;;;;;;10282795;28;20236;-71
2023/06/27 06:20:29;;;;;;;0.52;0.50;;;;;;;;;;10286367;28;20231;-74
2023/06/27 06:25:30;;;;;;;0.75;0.70;;;;;;;;;;10285091;28;20220;-73
2023/06/27 06:30:31;;;;;;;0.95;0.38;;;;;;;;;;10276975;28;20626;-73
2023/06/27 06:35:32;;;;;;;1.65;0.50;;;;;;;;;;10294226;28;20217;-76
2023/06/27 06:40:33;;;;;;;0.95;0.60;;;;;;;;;;10281827;28;20253;-73
2023/06/27 06:45:34;;;;;;;2.45;0.50;;;;;;;;;;10292257;28;20228;-74
2023/06/27 06:50:35;;;;;;;1.52;0.60;;;;;;;;;;10300486;28;20271;-74
2023/06/27 06:55:36;;;;;;;2.45;0.40;;;;;;;;;;10287733;28;20311;-73
2023/06/27 07:00:37;;;;;;;0.65;0.60;;;;;;;;;;10295996;28;20227;-75
2023/06/27 07:05:40;;;;;;;1.83;0.60;;;;;;;;;;10285460;28;20778;-74
2023/06/27 07:10:41;;;;;;;1.05;0.50;;;;;;;;;;10279731;28;20792;-71
2023/06/27 07:15:42;;;;;;;3.75;0.75;;;;;;;;;;10297855;28;20291;-71
2023/06/27 07:20:43;;;;;;;1.38;0.60;;;;;;;;;;10292002;28;20216;-74
2023/06/27 07:25:44;;;;;;;2.03;0.65;;;;;;;;;;10284009;28;20213;-74
2023/06/27 07:30:45;;;;;;;1.13;0.50;;;;;;;;;;10287662;28;20216;-76
2023/06/27 07:35:46;;;;;;;0.90;0.47;;;;;;;;;;10274112;28;21256;-74
2023/06/27 07:40:47;;;;;;;0.40;0.40;;;;;;;;;;10275160;28;20221;-72
2023/06/27 07:45:48;;;;;;;0.40;0.40;;;;;;;;;;10268620;28;20259;-73
2023/06/27 07:50:49;;;;;;;2.20;0.50;;;;;;;;;;10276370;28;20852;-73
2023/06/27 07:55:50;;;;;;;1.23;0.40;;;;;;;;;;10289205;28;20216;-71
2023/06/27 08:00:53;;;;;;;0.50;0.50;;;;;;;;;;10283969;28;20204;-70
2023/06/27 08:05:55;;;;;;;1.60;0.50;;;;;;;;;;10291224;28;20225;-71
2023/06/27 08:10:56;;;;;;;2.53;0.40;;;;;;;;;;10272383;28;20292;-74
2023/06/27 08:15:57;;;;;;;1.20;0.65;;;;;;;;;;10274928;28;20217;-75
2023/06/27 08:20:58;;;;;;;0.63;0.40;;;;;;;;;;10290525;28;20770;-75
2023/06/27 08:25:59;;;;;;;0.50;0.40;;;;;;;;;;10267044;28;21109;-73
2023/06/27 08:31:00;;;;;;;1.48;0.43;;;;;;;;;;10263574;28;20208;-74
2023/06/27 08:36:01;;;;;;;2.22;0.40;;;;;;;;;;10270409;28;20220;-75
2023/06/27 08:41:03;;;;;;;2.60;0.50;;;;;;;;;;10265059;28;20296;-74
2023/06/27 08:46:06;;;;;;;6.97;0.50;;;;;;;;;;10286035;28;20922;-76
2023/06/27 08:51:08;;;;;;;1.35;0.43;;;;;;;;;;10281577;28;21279;-77
2023/06/27 08:56:10;;;;;;;0.30;0.30;;;;;;;;;;10263844;28;20220;-74
2023/06/27 09:01:12;;;;;;;1.83;0.65;;;;;;;;;;10267833;28;20266;-74
2023/06/27 09:06:14;;;;;;;2.05;0.77;;;;;;;;;;10284773;28;20290;-75
2023/06/27 09:11:16;;;;;;;0.40;0.40;;;;;;;;;;10276228;28;20220;-73
2023/06/27 09:16:17;;;;;;;2.35;0.45;;;;;;;;;;10283826;28;20217;-77
2023/06/27 09:21:19;;;;;;;1.17;0.60;;;;;;;;;;10273647;28;20213;-74
2023/06/27 09:26:20;;;;;;;2.03;0.60;;;;;;;;;;10283454;28;20216;-74
2023/06/27 09:31:22;;;;;;;2.10;0.50;;;;;;;;;;10261588;28;20240;-74
2023/06/27 09:36:35;;;;;;;4.15;0.50;;;;;;;;;;10272430;28;20212;-73
2023/06/27 09:41:41;;;;;;;3.50;0.50;;;;;;;;;;10272699;28;20213;-74
2023/06/27 09:46:43;;;;;;;2.83;0.50;;;;;;;;;;10296274;28;20308;-74
2023/06/27 09:51:45;;;;;;;0.93;0.50;;;;;;;;;;10283825;28;20220;-75
2023/06/27 09:56:49;;;;;;;0.40;0.40;;;;;;;;;;10273545;28;20251;-77
2023/06/27 10:01:51;;;;;;;4.38;0.63;;;;;;;;;;10276600;28;21059;-77
2023/06/27 10:06:52;;;;;;;1.48;0.57;;;;;;;;;;10295986;28;20231;-74
2023/06/27 10:11:53;;;;;;;4.35;0.60;;;;;;;;;;10286561;28;20236;-74
2023/06/27 10:16:54;;;;;;;0.50;0.45;;;;;;;;;;10302042;28;20921;-73
2023/06/27 10:21:55;;;;;;;1.88;0.52;;;;;;;;;;10296469;28;20665;-75
2023/06/27 10:26:57;;;;;;;0.70;0.30;;;;;;;;;;10289734;28;20753;-75
2023/06/27 10:31:59;;;;;;;2.15;0.65;;;;;;;;;;10277911;28;20813;-74
2023/06/27 10:37:01;;;;;;;0.43;0.43;;;;;;;;;;10264295;28;20318;-76
2023/06/27 10:42:05;;;;;;;0.57;0.57;;;;;;;;;;10279906;28;20809;-76
2023/06/27 10:47:15;;;;;;;1.55;0.40;;;;;;;;;;10298875;28;20229;-80
2023/06/27 10:52:23;;;;;;;1.48;0.45;;;;;;;;;;10279139;28;20216;-79
2023/06/27 10:57:24;;;;;;;0.73;0.65;;;;;;;;;;10286229;28;20294;-78
2023/06/27 11:02:32;;;;;;;0.38;0.38;;;;;;;;;;10284979;28;21138;-77
2023/06/27 11:07:37;;;;;;;0.30;0.30;;;;;;;;;;10291063;28;20242;-78
2023/06/27 11:12:38;;;;;;;0.73;0.40;;;;;;;;;;10277591;28;20268;-73
2023/06/27 11:17:40;;;;;;;2.53;0.40;;;;;;;;;;10278934;28;20778;-75
2023/06/27 11:22:41;;;;;;;0.40;0.40;;;;;;;;;;10279082;28;22182;-74
2023/06/27 11:27:42;;;;;;;0.30;0.30;;;;;;;;;;10276457;28;20221;-75
2023/06/27 11:32:43;;;;;;;0.57;0.35;;;;;;;;;;10280314;28;21390;-75
2023/06/27 11:37:44;;;;;;;0.30;0.30;;;;;;;;;;10258691;28;20333;-74
2023/06/27 11:42:45;;;;;;;1.25;0.50;;;;;;;;;;10278086;28;20392;-75
2023/06/27 11:47:46;;;;;;;0.35;0.30;;;;;;;;;;10287011;28;20220;-75
2023/06/27 11:52:48;;;;;;;3.20;0.57;;;;;;;;;;10284905;28;20269;-74
2023/06/27 11:57:52;;;;;;;0.20;0.20;;;;;;;;;;10290906;28;20232;-76
2023/06/27 12:02:54;;;;;;;0.68;0.30;;;;;;;;;;10286599;28;20217;-77
2023/06/27 12:08:01;;;;;;;0.30;0.30;;;;;;;;;;10292778;28;20739;-74
2023/06/27 12:13:03;;;;;;;3.70;0.35;;;;;;;;;;10293157;28;20225;-75
2023/06/27 12:18:04;;;;;;;0.10;0.10;;;;;;;;;;10296385;28;20225;-74
2023/06/27 12:23:05;;;;;;;2.22;0.40;;;;;;;;;;10284754;28;20228;-74
2023/06/27 12:28:07;;;;;;;0.85;0.50;;;;;;;;;;10291524;28;20217;-76
2023/06/27 12:33:08;;;;;;;4.78;0.50;;;;;;;;;;10261704;28;20213;-77
2023/06/27 12:38:09;;;;;;;0.73;0.40;;;;;;;;;;10278987;28;20221;-74
2023/06/27 12:43:11;;;;;;;2.03;0.35;;;;;;;;;;10274840;28;21321;-76
2023/06/27 12:48:12;;;;;;;0.20;0.20;;;;;;;;;;10288321;28;20339;-78
2023/06/27 12:53:13;;;;;;;3.83;0.52;;;;;;;;;;10289672;28;20243;-77
2023/06/27 12:58:14;;;;;;;0.65;0.38;;;;;;;;;;10280592;28;20220;-74
2023/06/27 13:03:15;;;;;;;0.60;0.50;;;;;;;;;;10279627;28;20220;-76
2023/06/27 13:08:17;;;;;;;0.52;0.52;;;;;;;;;;10285333;28;20245;-74
2023/06/27 13:13:18;;;;;;;0.65;0.50;;;;;;;;;;10274247;28;20212;-74
2023/06/27 13:18:19;;;;;;;0.45;0.45;;;;;;;;;;10279429;28;20731;-74
2023/06/27 13:23:21;;;;;;;0.40;0.40;;;;;;;;;;10275092;28;20235;-73
2023/06/27 13:28:22;;;;;;;1.45;0.40;;;;;;;;;;10282182;28;20841;-75
2023/06/27 13:33:23;;;;;;;0.40;0.40;;;;;;;;;;10274582;28;20233;-75
2023/06/27 13:38:24;;;;;;;0.30;0.30;;;;;;;;;;10268291;28;20275;-75
2023/06/27 13:43:25;;;;;;;1.20;0.40;;;;;;;;;;10271674;28;20331;-76
2023/06/27 13:48:26;;;;;;;0.68;0.30;;;;;;;;;;10281339;28;20221;-75
2023/06/27 13:53:27;;;;;;;0.22;0.22;;;;;;;;;;10285280;28;20217;-74
2023/06/27 13:58:29;;;;;;;0.30;0.30;;;;;;;;;;10268338;28;20725;-74
2023/06/27 14:03:31;;;;;;;0.38;0.30;;;;;;;;;;10280305;28;20742;-73
2023/06/27 14:08:32;;;;;;;0.50;0.20;;;;;;;;;;10273158;28;20264;-76
2023/06/27 14:13:33;;;;;;;0.90;0.30;;;;;;;;;;10295943;28;20310;-74
2023/06/27 14:18:35;;;;;;;0.55;0.55;;;;;;;;;;10294866;28;21239;-74
2023/06/27 14:23:36;;;;;;;0.80;0.30;;;;;;;;;;10291522;28;20228;-70
2023/06/27 14:28:37;;;;;;;0.28;0.28;;;;;;;;;;10305973;28;20228;-74
2023/06/27 14:33:39;;;;;;;0.25;0.25;;;;;;;;;;10287198;28;20252;-73
2023/06/27 14:38:40;;;;;;;0.20;0.20;;;;;;;;;;10289526;28;20309;-73
2023/06/27 14:43:41;;;;;;;0.93;0.40;;;;;;;;;;10288735;28;20220;-74
2023/06/27 14:48:42;;;;;;;0.43;0.40;;;;;;;;;;10292220;28;20225;-74
2023/06/27 14:53:43;;;;;;;1.08;0.30;;;;;;;;;;10296918;28;20270;-74
2023/06/27 14:58:44;;;;;;;0.75;0.30;;;;;;;;;;10304231;28;20212;-74
2023/06/27 15:03:45;;;;;;;0.20;0.20;;;;;;;;;;10296828;28;20375;-74
2023/06/27 15:08:46;;;;;;;0.30;0.30;;;;;;;;;;10294577;28;20228;-74
2023/06/27 15:13:47;;;;;;;4.97;0.40;;;;;;;;;;10291567;28;20677;-74
2023/06/27 15:18:49;;;;;;;0.30;0.30;;;;;;;;;;10296992;28;21121;-74
2023/06/27 15:23:50;;;;;;;0.20;0.20;;;;;;;;;;10258555;28;20213;-73
2023/06/27 15:28:52;;;;;;;0.82;0.38;;;;;;;;;;10287662;28;20244;-74
2023/06/27 15:33:53;;;;;;;0.63;0.30;;;;;;;;;;10278961;28;20307;-73
2023/06/27 15:38:54;;;;;;;2.70;0.30;;;;;;;;;;10283593;28;20931;-73
2023/06/27 15:43:55;;;;;;;0.20;0.20;;;;;;;;;;10277026;28;20221;-73
2023/06/27 15:48:56;;;;;;;2.72;0.30;;;;;;;;;;10277605;28;20911;-74
2023/06/27 15:53:57;;;;;;;0.70;0.30;;;;;;;;;;10276064;28;20243;-73
2023/06/27 15:58:58;;;;;;;0.35;0.30;;;;;;;;;;10289851;28;21698;-76
2023/06/27 16:03:59;;;;;;;1.38;0.30;;;;;;;;;;10281602;28;20331;-74
2023/06/27 16:09:00;;;;;;;0.30;0.30;;;;;;;;;;10277143;28;20679;-75
2023/06/27 16:14:01;;;;;;;1.00;0.40;;;;;;;;;;10291200;28;20213;-73
2023/06/27 16:19:02;;;;;;;2.08;0.38;;;;;;;;;;10295099;28;20495;-74
2023/06/27 16:24:03;;;;;;;0.50;0.50;;;;;;;;;;10289144;28;20224;-74
2023/06/27 16:29:05;;;;;;;1.23;0.30;;;;;;;;;;10290956;28;20322;-76
2023/06/27 16:34:07;;;;;;;0.73;0.30;;;;;;;;;;10298895;28;20220;-76
2023/06/27 16:39:08;;;;;;;2.50;0.40;;;;;;;;;;10290000;28;20354;-75
2023/06/27 16:44:09;;;;;;;0.55;0.40;;;;;;;;;;10289253;28;20255;-76
2023/06/27 16:49:10;;;;;;;0.73;0.40;;;;;;;;;;10286627;28;20243;-75
2023/06/27 16:54:11;;;;;;;0.30;0.30;;;;;;;;;;10286671;28;20251;-76
2023/06/27 16:59:12;;;;;;;1.00;0.28;;;;;;;;;;10293212;28;20216;-76
2023/06/27 17:04:13;;;;;;;2.72;0.40;;;;;;;;;;10293957;28;20224;-77
2023/06/27 17:09:14;;;;;;;2.20;0.35;;;;;;;;;;10294177;28;20248;-76
2023/06/27 17:14:15;;;;;;;0.30;0.30;;;;;;;;;;10293002;28;20335;-76
2023/06/27 17:19:16;;;;;;;0.90;0.40;;;;;;;;;;10269435;28;20735;-76
2023/06/27 17:24:18;;;;;;;0.40;0.40;;;;;;;;;;10286089;28;20217;-75
2023/06/27 17:29:19;;;;;;;0.20;0.20;;;;;;;;;;10284830;28;20248;-75
2023/06/27 17:34:20;;;;;;;6.40;0.40;;;;;;;;;;10296670;28;20586;-74
2023/06/27 17:39:23;;;;;;;1.05;0.40;;;;;;;;;;10289455;28;20646;-74
2023/06/27 17:44:24;;;;;;;0.20;0.20;;;;;;;;;;10297289;28;20216;-76
2023/06/27 17:49:25;;;;;;;6.85;0.35;;;;;;;;;;10283235;28;20225;-73
2023/06/27 17:54:26;;;;;;;1.17;0.40;;;;;;;;;;10279102;28;20217;-74
2023/06/27 17:59:27;;;;;;;0.40;0.40;;;;;;;;;;10280335;28;20842;-73
2023/06/27 18:04:28;;;;;;;1.50;0.88;;;;;;;;;;10283195;28;20216;-74
2023/06/27 18:09:29;;;;;;;1.80;0.55;;;;;;;;;;10292952;28;20720;-74
2023/06/27 18:14:32;;;;;;;2.13;0.90;;;;;;;;;;10275297;28;20232;-74
2023/06/27 18:19:33;;;;;;;1.10;1.00;;;;;;;;;;10269991;28;20225;-74
2023/06/27 18:24:34;;;;;;;0.82;0.70;;;;;;;;;;10289677;28;20213;-74
2023/06/27 18:29:35;;;;;;;0.40;0.40;;;;;;;;;;10277456;28;20314;-77
2023/06/27 18:34:36;;;;;;;0.40;0.40;;;;;;;;;;10292681;28;20217;-76
2023/06/27 18:39:37;;;;;;;0.73;0.73;;;;;;;;;;10293313;28;20651;-76
2023/06/27 18:44:38;;;;;;;1.20;0.40;;;;;;;;;;10292168;28;20221;-75
2023/06/27 18:49:39;;;;;;;2.67;0.50;;;;;;;;;;10278244;28;20231;-77
2023/06/27 18:54:40;;;;;;;3.10;0.40;;;;;;;;;;10293343;28;20267;-75
2023/06/27 18:59:41;;;;;;;2.30;0.50;;;;;;;;;;10295353;28;20213;-74
2023/06/27 19:04:42;;;;;;;0.63;0.52;;;;;;;;;;10297925;28;20268;-73
2023/06/27 19:09:43;;;;;;;1.20;0.40;;;;;;;;;;10292512;28;20228;-75
2023/06/27 19:14:44;;;;;;;0.43;0.40;;;;;;;;;;10308163;28;20212;-76
2023/06/27 19:19:45;;;;;;;0.75;0.65;;;;;;;;;;10298415;28;20213;-75
2023/06/27 19:24:46;;;;;;;1.65;0.60;;;;;;;;;;10296209;28;20725;-73
2023/06/27 19:29:47;;;;;;;0.40;0.40;;;;;;;;;;10305600;28;20231;-73
2023/06/27 19:34:48;;;;;;;0.50;0.50;;;;;;;;;;10310081;28;20212;-74
2023/06/27 19:39:49;;;;;;;0.55;0.55;;;;;;;;;;10307391;28;20283;-74
2023/06/27 19:44:51;;;;;;;3.20;0.50;;;;;;;;;;10301460;28;20212;-73
2023/06/27 19:49:53;;;;;;;1.10;0.88;;;;;;;;;;10292980;28;20225;-75
2023/06/27 19:54:55;;;;;;;0.38;0.38;;;;;;;;;;10301361;28;20208;-74
2023/06/27 19:59:56;;;;;;;2.83;0.50;;;;;;;;;;10303158;28;20784;-73
2023/06/27 20:04:57;;;;;;;0.38;0.38;;;;;;;;;;10297293;28;20711;-74
2023/06/27 20:09:58;;;;;;;0.30;0.30;;;;;;;;;;10302733;28;20912;-73
2023/06/27 20:14:59;;;;;;;0.28;0.28;;;;;;;;;;10294278;28;20224;-74
2023/06/27 20:20:03;;;;;;;1.85;0.30;;;;;;;;;;10290379;28;20215;-72
2023/06/27 20:25:04;;;;;;;1.27;0.30;;;;;;;;;;10305933;28;20267;-73
2023/06/27 20:30:06;;;;;;;0.73;0.35;;;;;;;;;;10296550;28;20208;-75
2023/06/27 20:35:07;;;;;;;2.20;0.50;;;;;;;;;;10295319;28;20216;-72
2023/06/27 20:40:09;;;;;;;1.85;0.30;;;;;;;;;;10295389;28;20182;-73
2023/06/27 20:45:10;;;;;;;3.40;0.50;;;;;;;;;;10302924;28;20189;-72
2023/06/27 20:50:11;;;;;;;0.70;0.50;;;;;;;;;;10298594;28;20197;-74
2023/06/27 20:55:12;;;;;;;2.00;0.60;;;;;;;;;;10302171;28;20224;-73
2023/06/27 21:00:13;;;;;;;4.05;0.60;;;;;;;;;;10298800;28;20255;-72
2023/06/27 21:05:14;;;;;;;0.40;0.35;;;;;;;;;;10299352;28;20205;-72
2023/06/27 21:10:15;;;;;;;1.45;0.50;;;;;;;;;;10277382;28;20200;-73
2023/06/27 21:15:16;;;;;;;0.60;0.60;;;;;;;;;;10291618;28;20625;-73
2023/06/27 21:20:17;;;;;;;1.08;0.75;;;;;;;;;;10278502;28;20201;-72
2023/06/27 21:25:18;;;;;;;2.35;0.50;;;;;;;;;;10294451;28;20307;-74
2023/06/27 21:30:19;;;;;;;0.43;0.43;;;;;;;;;;10298782;28;20228;-73
2023/06/27 21:35:20;;;;;;;1.15;0.60;;;;;;;;;;10307869;28;20339;-73
2023/06/27 21:40:21;;;;;;;0.70;0.70;;;;;;;;;;10309916;28;20184;-71
2023/06/27 21:45:22;;;;;;;0.63;0.57;;;;;;;;;;10307721;28;20226;-71
2023/06/27 21:50:28;;;;;;;0.60;0.60;;;;;;;;;;10299396;28;20184;-69
2023/06/27 21:55:29;;;;;;;2.38;0.57;;;;;;;;;;10294945;28;20228;-70
2023/06/27 22:00:30;;;;;;;0.73;0.43;;;;;;;;;;10311964;28;20212;-72
2023/06/27 22:05:31;;;;;;;0.63;0.63;;;;;;;;;;10292384;28;20235;-71
2023/06/27 22:10:31;;;;;;;4.47;0.75;;;;;;;;;;10293138;28;20220;-71
2023/06/27 22:15:33;;;;;;;1.35;0.68;;;;;;;;;;10307444;28;20217;-70
2023/06/27 22:20:34;;;;;;;9.10;0.73;;;;;;;;;;10295937;28;21078;-70
2023/06/27 22:25:35;;;;;;;0.50;0.50;;;;;;;;;;10289652;28;20278;-72
2023/06/27 22:30:36;;;;;;;2.50;0.70;;;;;;;;;;10300223;28;20622;-71
2023/06/27 22:35:37;;;;;;;0.50;0.50;;;;;;;;;;10303354;28;20224;-71
2023/06/27 22:40:38;;;;;;;1.85;0.80;;;;;;;;;;10285504;28;20745;-71
2023/06/27 22:45:39;;;;;;;0.90;0.90;;;;;;;;;;10303350;28;20228;-72
2023/06/27 22:50:42;;;;;;;0.52;0.52;;;;;;;;;;10285143;28;20219;-72
2023/06/27 22:55:43;;;;;;;0.63;0.60;;;;;;;;;;10286059;28;20243;-71
2023/06/27 23:00:44;;;;;;;0.85;0.60;;;;;;;;;;10291782;28;20299;-72
2023/06/27 23:05:48;;;;;;;0.55;0.55;;;;;;;;;;10294771;28;20225;-72
2023/06/27 23:10:50;;;;;;;6.28;0.82;;;;;;;;;;10279948;28;20316;-72
2023/06/27 23:15:52;;;;;;;2.38;0.65;;;;;;;;;;10293760;28;20225;-71
2023/06/27 23:20:55;;;;;;;2.67;0.60;;;;;;;;;;10265651;28;20659;-72
2023/06/27 23:25:58;;;;;;;8.77;1.30;;;;;;;;;;10280267;28;20248;-72
2023/06/27 23:31:00;;;;;;;0.70;0.70;;;;;;;;;;10278229;28;20218;-72
2023/06/27 23:36:01;;;;;;;0.70;0.70;;;;;;;;;;10287605;28;20601;-71
2023/06/27 23:41:02;;;;;;;4.38;1.00;;;;;;;;;;10288997;28;20224;-75
2023/06/27 23:46:03;;;;;;;1.67;0.77;;;;;;;;;;10278261;28;20228;-72
2023/06/27 23:51:04;;;;;;;3.33;0.90;;;;;;;;;;10290610;28;20208;-74
2023/06/27 23:56:05;;;;;;;1.95;0.68;;;;;;;;;;10278246;28;20220;-72
